sensor_id;sensor_type;location;lat;lon;timestamp;temperature;humidity
52245;DHT22;55759;51.586;-1.758;2023-08-17T00:02:15;16.60;80.10
52245;DHT22;55759;51.586;-1.758;2023-08-17T00:04:40;16.60;81.50
52245;DHT22;55759;51.586;-1.758;2023-08-17T00:07:06;16.60;79.40
52245;DHT22;55759;51.586;-1.758;2023-08-17T00:09:32;16.60;80.40
52245;DHT22;55759;51.586;-1.758;2023-08-17T00:11:59;16.50;79.70
52245;DHT22;55759;51.586;-1.758;2023-08-17T00:14:24;16.50;80.40
52245;DHT22;55759;51.586;-1.758;2023-08-17T00:16:50;16.40;81.30
52245;DHT22;55759;51.586;-1.758;2023-08-17T00:19:16;16.40;81.50
52245;DHT22;55759;51.586;-1.758;2023-08-17T00:21:41;16.30;81.30
52245;DHT22;55759;51.586;-1.758;2023-08-17T00:24:07;16.20;82.10
52245;DHT22;55759;51.586;-1.758;2023-08-17T00:26:32;16.20;82.20
52245;DHT22;55759;51.586;-1.758;2023-08-17T00:28:58;16.20;82.00
52245;DHT22;55759;51.586;-1.758;2023-08-17T00:31:23;16.10;81.00
52245;DHT22;55759;51.586;-1.758;2023-08-17T00:33:49;16.00;81.90
52245;DHT22;55759;51.586;-1.758;2023-08-17T00:36:15;16.00;81.50
52245;DHT22;55759;51.586;-1.758;2023-08-17T00:38:40;15.90;80.40
52245;DHT22;55759;51.586;-1.758;2023-08-17T00:41:06;15.90;79.90
52245;DHT22;55759;51.586;-1.758;2023-08-17T00:43:32;15.90;79.60
52245;DHT22;55759;51.586;-1.758;2023-08-17T00:45:57;15.80;79.20
52245;DHT22;55759;51.586;-1.758;2023-08-17T00:48:23;15.80;80.40
52245;DHT22;55759;51.586;-1.758;2023-08-17T00:50:49;15.80;78.60
52245;DHT22;55759;51.586;-1.758;2023-08-17T00:53:15;15.70;80.60
52245;DHT22;55759;51.586;-1.758;2023-08-17T00:55:41;15.60;80.60
52245;DHT22;55759;51.586;-1.758;2023-08-17T00:58:07;15.60;79.10
52245;DHT22;55759;51.586;-1.758;2023-08-17T01:00:33;15.60;79.10
52245;DHT22;55759;51.586;-1.758;2023-08-17T01:02:59;15.60;79.90
52245;DHT22;55759;51.586;-1.758;2023-08-17T01:05:25;15.50;79.60
52245;DHT22;55759;51.586;-1.758;2023-08-17T01:07:50;15.50;79.50
52245;DHT22;55759;51.586;-1.758;2023-08-17T01:10:16;15.50;79.40
52245;DHT22;55759;51.586;-1.758;2023-08-17T01:17:56;15.40;79.70
52245;DHT22;55759;51.586;-1.758;2023-08-17T01:20:23;15.30;80.70
52245;DHT22;55759;51.586;-1.758;2023-08-17T01:22:50;15.20;80.40
52245;DHT22;55759;51.586;-1.758;2023-08-17T01:25:17;15.10;81.10
52245;DHT22;55759;51.586;-1.758;2023-08-17T01:27:46;15.10;81.00
52245;DHT22;55759;51.586;-1.758;2023-08-17T01:30:15;15.10;81.40
52245;DHT22;55759;51.586;-1.758;2023-08-17T01:32:44;15.10;81.40
52245;DHT22;55759;51.586;-1.758;2023-08-17T01:35:15;15.00;80.90
52245;DHT22;55759;51.586;-1.758;2023-08-17T01:37:42;15.00;81.40
52245;DHT22;55759;51.586;-1.758;2023-08-17T01:40:08;15.00;81.30
52245;DHT22;55759;51.586;-1.758;2023-08-17T01:42:35;15.00;80.40
52245;DHT22;55759;51.586;-1.758;2023-08-17T01:45:01;14.90;81.40
52245;DHT22;55759;51.586;-1.758;2023-08-17T01:47:27;14.80;81.20
52245;DHT22;55759;51.586;-1.758;2023-08-17T01:49:52;14.80;81.40
52245;DHT22;55759;51.586;-1.758;2023-08-17T01:52:18;14.70;81.60
52245;DHT22;55759;51.586;-1.758;2023-08-17T01:54:43;14.70;80.90
52245;DHT22;55759;51.586;-1.758;2023-08-17T01:57:09;14.70;80.20
52245;DHT22;55759;51.586;-1.758;2023-08-17T01:59:34;14.70;80.50
52245;DHT22;55759;51.586;-1.758;2023-08-17T02:02:00;14.60;80.80
52245;DHT22;55759;51.586;-1.758;2023-08-17T02:04:25;14.60;80.90
52245;DHT22;55759;51.586;-1.758;2023-08-17T02:06:51;14.60;81.20
52245;DHT22;55759;51.586;-1.758;2023-08-17T02:09:17;14.60;80.50
52245;DHT22;55759;51.586;-1.758;2023-08-17T02:11:42;14.50;81.50
52245;DHT22;55759;51.586;-1.758;2023-08-17T02:14:08;14.40;81.10
52245;DHT22;55759;51.586;-1.758;2023-08-17T02:16:33;14.40;80.90
52245;DHT22;55759;51.586;-1.758;2023-08-17T02:18:59;14.40;81.20
52245;DHT22;55759;51.586;-1.758;2023-08-17T02:21:25;14.30;81.50
52245;DHT22;55759;51.586;-1.758;2023-08-17T02:23:50;14.30;81.80
52245;DHT22;55759;51.586;-1.758;2023-08-17T02:26:16;14.20;81.90
52245;DHT22;55759;51.586;-1.758;2023-08-17T02:28:42;14.30;81.90
52245;DHT22;55759;51.586;-1.758;2023-08-17T02:31:08;14.20;82.40
52245;DHT22;55759;51.586;-1.758;2023-08-17T02:33:33;14.20;81.80
52245;DHT22;55759;51.586;-1.758;2023-08-17T02:35:59;14.20;82.30
52245;DHT22;55759;51.586;-1.758;2023-08-17T02:38:24;14.10;82.90
52245;DHT22;55759;51.586;-1.758;2023-08-17T02:40:50;14.10;82.10
52245;DHT22;55759;51.586;-1.758;2023-08-17T02:43:16;14.10;83.30
52245;DHT22;55759;51.586;-1.758;2023-08-17T02:45:41;14.10;83.70
52245;DHT22;55759;51.586;-1.758;2023-08-17T02:48:07;14.10;83.70
52245;DHT22;55759;51.586;-1.758;2023-08-17T02:50:33;14.10;83.70
52245;DHT22;55759;51.586;-1.758;2023-08-17T02:52:58;14.00;84.00
52245;DHT22;55759;51.586;-1.758;2023-08-17T02:55:25;14.10;84.10
52245;DHT22;55759;51.586;-1.758;2023-08-17T02:57:50;14.00;84.00
52245;DHT22;55759;51.586;-1.758;2023-08-17T03:00:16;14.00;84.50
52245;DHT22;55759;51.586;-1.758;2023-08-17T03:02:41;13.90;85.10
52245;DHT22;55759;51.586;-1.758;2023-08-17T03:05:07;14.00;84.90
52245;DHT22;55759;51.586;-1.758;2023-08-17T03:07:33;14.10;85.30
52245;DHT22;55759;51.586;-1.758;2023-08-17T03:09:58;14.10;85.40
52245;DHT22;55759;51.586;-1.758;2023-08-17T03:12:24;14.20;85.30
52245;DHT22;55759;51.586;-1.758;2023-08-17T03:14:49;14.20;85.30
52245;DHT22;55759;51.586;-1.758;2023-08-17T03:17:15;14.40;85.10
52245;DHT22;55759;51.586;-1.758;2023-08-17T03:19:41;14.50;85.20
52245;DHT22;55759;51.586;-1.758;2023-08-17T03:22:07;14.60;85.10
52245;DHT22;55759;51.586;-1.758;2023-08-17T03:24:32;14.60;84.80
52245;DHT22;55759;51.586;-1.758;2023-08-17T03:26:58;14.70;84.70
52245;DHT22;55759;51.586;-1.758;2023-08-17T03:29:23;14.80;84.20
52245;DHT22;55759;51.586;-1.758;2023-08-17T03:31:49;14.80;84.20
52245;DHT22;55759;51.586;-1.758;2023-08-17T03:34:15;14.90;84.50
52245;DHT22;55759;51.586;-1.758;2023-08-17T03:36:40;15.00;83.80
52245;DHT22;55759;51.586;-1.758;2023-08-17T03:39:06;15.10;84.00
52245;DHT22;55759;51.586;-1.758;2023-08-17T03:41:32;15.20;84.30
52245;DHT22;55759;51.586;-1.758;2023-08-17T03:43:57;15.30;84.10
52245;DHT22;55759;51.586;-1.758;2023-08-17T03:46:23;15.30;84.00
52245;DHT22;55759;51.586;-1.758;2023-08-17T03:48:49;15.30;84.10
52245;DHT22;55759;51.586;-1.758;2023-08-17T03:51:14;15.20;84.40
52245;DHT22;55759;51.586;-1.758;2023-08-17T03:53:40;15.10;84.80
52245;DHT22;55759;51.586;-1.758;2023-08-17T03:56:05;15.00;85.20
52245;DHT22;55759;51.586;-1.758;2023-08-17T03:58:31;14.90;85.70
52245;DHT22;55759;51.586;-1.758;2023-08-17T04:01:00;14.90;85.90
52245;DHT22;55759;51.586;-1.758;2023-08-17T04:03:25;14.80;86.30
52245;DHT22;55759;51.586;-1.758;2023-08-17T04:05:51;14.70;86.60
52245;DHT22;55759;51.586;-1.758;2023-08-17T04:08:17;14.60;86.90
52245;DHT22;55759;51.586;-1.758;2023-08-17T04:10:42;14.50;87.30
52245;DHT22;55759;51.586;-1.758;2023-08-17T04:13:08;14.60;87.80
52245;DHT22;55759;51.586;-1.758;2023-08-17T04:15:33;14.60;87.80
52245;DHT22;55759;51.586;-1.758;2023-08-17T04:17:59;14.70;87.80
52245;DHT22;55759;51.586;-1.758;2023-08-17T04:20:24;14.80;87.90
52245;DHT22;55759;51.586;-1.758;2023-08-17T04:22:51;14.90;87.50
52245;DHT22;55759;51.586;-1.758;2023-08-17T04:25:16;14.90;87.50
52245;DHT22;55759;51.586;-1.758;2023-08-17T04:27:42;15.00;87.30
52245;DHT22;55759;51.586;-1.758;2023-08-17T04:30:08;15.00;87.30
52245;DHT22;55759;51.586;-1.758;2023-08-17T04:32:34;15.10;86.90
52245;DHT22;55759;51.586;-1.758;2023-08-17T04:34:59;15.20;86.60
52245;DHT22;55759;51.586;-1.758;2023-08-17T04:37:25;15.20;86.60
52245;DHT22;55759;51.586;-1.758;2023-08-17T04:39:51;15.30;86.60
52245;DHT22;55759;51.586;-1.758;2023-08-17T04:42:16;15.30;86.50
52245;DHT22;55759;51.586;-1.758;2023-08-17T04:44:42;15.30;86.20
52245;DHT22;55759;51.586;-1.758;2023-08-17T04:47:07;15.40;86.00
52245;DHT22;55759;51.586;-1.758;2023-08-17T04:49:33;15.40;86.20
52245;DHT22;55759;51.586;-1.758;2023-08-17T04:51:59;15.30;86.30
52245;DHT22;55759;51.586;-1.758;2023-08-17T04:54:24;15.30;86.30
52245;DHT22;55759;51.586;-1.758;2023-08-17T04:56:50;15.40;86.30
52245;DHT22;55759;51.586;-1.758;2023-08-17T04:59:15;15.40;86.20
52245;DHT22;55759;51.586;-1.758;2023-08-17T05:01:41;15.50;86.20
52245;DHT22;55759;51.586;-1.758;2023-08-17T05:04:06;15.50;86.40
52245;DHT22;55759;51.586;-1.758;2023-08-17T05:06:32;15.50;86.60
52245;DHT22;55759;51.586;-1.758;2023-08-17T05:08:58;15.40;86.90
52245;DHT22;55759;51.586;-1.758;2023-08-17T05:11:24;15.50;87.10
52245;DHT22;55759;51.586;-1.758;2023-08-17T05:13:49;15.60;86.90
52245;DHT22;55759;51.586;-1.758;2023-08-17T05:16:15;15.60;86.90
52245;DHT22;55759;51.586;-1.758;2023-08-17T05:18:40;15.60;87.10
52245;DHT22;55759;51.586;-1.758;2023-08-17T05:21:06;15.60;86.90
52245;DHT22;55759;51.586;-1.758;2023-08-17T05:23:31;15.70;87.10
52245;DHT22;55759;51.586;-1.758;2023-08-17T05:25:57;15.60;87.10
52245;DHT22;55759;51.586;-1.758;2023-08-17T05:28:22;15.70;87.40
52245;DHT22;55759;51.586;-1.758;2023-08-17T05:30:48;15.70;87.60
52245;DHT22;55759;51.586;-1.758;2023-08-17T05:33:14;15.70;87.80
52245;DHT22;55759;51.586;-1.758;2023-08-17T05:35:39;15.80;88.00
52245;DHT22;55759;51.586;-1.758;2023-08-17T05:38:05;15.90;88.10
52245;DHT22;55759;51.586;-1.758;2023-08-17T05:40:31;16.00;88.10
52245;DHT22;55759;51.586;-1.758;2023-08-17T05:42:57;16.20;88.00
52245;DHT22;55759;51.586;-1.758;2023-08-17T05:45:22;16.30;87.90
52245;DHT22;55759;51.586;-1.758;2023-08-17T05:47:48;16.40;87.90
52245;DHT22;55759;51.586;-1.758;2023-08-17T05:50:14;16.50;87.50
52245;DHT22;55759;51.586;-1.758;2023-08-17T05:52:40;16.60;87.10
52245;DHT22;55759;51.586;-1.758;2023-08-17T05:55:06;16.70;86.70
52245;DHT22;55759;51.586;-1.758;2023-08-17T05:57:31;16.80;86.70
52245;DHT22;55759;51.586;-1.758;2023-08-17T05:59:57;16.90;86.60
52245;DHT22;55759;51.586;-1.758;2023-08-17T06:02:22;16.90;86.00
52245;DHT22;55759;51.586;-1.758;2023-08-17T06:04:48;17.00;85.60
52245;DHT22;55759;51.586;-1.758;2023-08-17T06:07:14;17.00;85.40
52245;DHT22;55759;51.586;-1.758;2023-08-17T06:09:39;17.10;85.20
52245;DHT22;55759;51.586;-1.758;2023-08-17T06:12:05;17.10;84.90
52245;DHT22;55759;51.586;-1.758;2023-08-17T06:14:31;17.10;85.00
52245;DHT22;55759;51.586;-1.758;2023-08-17T06:16:58;17.10;84.60
52245;DHT22;55759;51.586;-1.758;2023-08-17T06:19:23;17.20;84.00
52245;DHT22;55759;51.586;-1.758;2023-08-17T06:21:49;17.30;83.70
52245;DHT22;55759;51.586;-1.758;2023-08-17T06:24:14;17.20;83.60
52245;DHT22;55759;51.586;-1.758;2023-08-17T06:26:40;17.10;83.90
52245;DHT22;55759;51.586;-1.758;2023-08-17T06:29:06;17.10;84.00
52245;DHT22;55759;51.586;-1.758;2023-08-17T06:31:33;17.20;84.00
52245;DHT22;55759;51.586;-1.758;2023-08-17T06:33:58;17.30;84.10
52245;DHT22;55759;51.586;-1.758;2023-08-17T06:36:24;17.30;83.90
52245;DHT22;55759;51.586;-1.758;2023-08-17T06:38:50;17.30;83.90
52245;DHT22;55759;51.586;-1.758;2023-08-17T06:41:16;17.40;83.50
52245;DHT22;55759;51.586;-1.758;2023-08-17T06:43:41;17.40;83.90
52245;DHT22;55759;51.586;-1.758;2023-08-17T06:46:07;17.50;83.80
52245;DHT22;55759;51.586;-1.758;2023-08-17T06:48:32;17.50;83.80
52245;DHT22;55759;51.586;-1.758;2023-08-17T06:50:58;17.60;83.80
52245;DHT22;55759;51.586;-1.758;2023-08-17T06:53:23;17.70;83.50
52245;DHT22;55759;51.586;-1.758;2023-08-17T06:55:49;17.80;83.30
52245;DHT22;55759;51.586;-1.758;2023-08-17T06:58:15;17.90;83.00
52245;DHT22;55759;51.586;-1.758;2023-08-17T07:00:40;17.90;83.00
52245;DHT22;55759;51.586;-1.758;2023-08-17T07:03:06;18.10;82.50
52245;DHT22;55759;51.586;-1.758;2023-08-17T07:05:32;18.20;82.20
52245;DHT22;55759;51.586;-1.758;2023-08-17T07:07:57;18.20;81.90
52245;DHT22;55759;51.586;-1.758;2023-08-17T07:10:24;18.30;82.10
52245;DHT22;55759;51.586;-1.758;2023-08-17T07:12:50;18.50;81.80
52245;DHT22;55759;51.586;-1.758;2023-08-17T07:15:15;18.60;81.20
52245;DHT22;55759;51.586;-1.758;2023-08-17T07:17:41;18.80;80.50
52245;DHT22;55759;51.586;-1.758;2023-08-17T07:20:07;19.00;79.90
52245;DHT22;55759;51.586;-1.758;2023-08-17T07:22:33;19.00;79.80
52245;DHT22;55759;51.586;-1.758;2023-08-17T07:24:59;19.10;79.20
52245;DHT22;55759;51.586;-1.758;2023-08-17T07:27:24;19.10;79.40
52245;DHT22;55759;51.586;-1.758;2023-08-17T07:29:50;19.10;80.00
52245;DHT22;55759;51.586;-1.758;2023-08-17T07:32:16;19.00;79.30
52245;DHT22;55759;51.586;-1.758;2023-08-17T07:34:41;19.00;79.60
52245;DHT22;55759;51.586;-1.758;2023-08-17T07:37:07;18.90;79.80
52245;DHT22;55759;51.586;-1.758;2023-08-17T07:39:32;18.90;80.10
52245;DHT22;55759;51.586;-1.758;2023-08-17T07:41:58;19.00;79.70
52245;DHT22;55759;51.586;-1.758;2023-08-17T07:44:24;19.10;80.00
52245;DHT22;55759;51.586;-1.758;2023-08-17T07:46:49;19.10;79.80
52245;DHT22;55759;51.586;-1.758;2023-08-17T07:49:15;19.00;80.50
52245;DHT22;55759;51.586;-1.758;2023-08-17T07:51:40;19.10;80.40
52245;DHT22;55759;51.586;-1.758;2023-08-17T07:54:06;19.10;80.50
52245;DHT22;55759;51.586;-1.758;2023-08-17T07:56:31;19.10;80.30
52245;DHT22;55759;51.586;-1.758;2023-08-17T07:58:57;19.20;79.90
52245;DHT22;55759;51.586;-1.758;2023-08-17T08:01:22;19.30;79.70
52245;DHT22;55759;51.586;-1.758;2023-08-17T08:03:48;19.30;79.70
52245;DHT22;55759;51.586;-1.758;2023-08-17T08:06:14;19.50;79.30
52245;DHT22;55759;51.586;-1.758;2023-08-17T08:08:39;19.60;79.00
52245;DHT22;55759;51.586;-1.758;2023-08-17T08:11:05;19.60;78.50
52245;DHT22;55759;51.586;-1.758;2023-08-17T08:13:31;19.60;78.90
52245;DHT22;55759;51.586;-1.758;2023-08-17T08:15:58;19.60;78.90
52245;DHT22;55759;51.586;-1.758;2023-08-17T08:18:24;19.60;78.80
52245;DHT22;55759;51.586;-1.758;2023-08-17T08:20:49;19.60;78.60
52245;DHT22;55759;51.586;-1.758;2023-08-17T08:23:15;19.50;78.80
52245;DHT22;55759;51.586;-1.758;2023-08-17T08:25:41;19.50;79.20
52245;DHT22;55759;51.586;-1.758;2023-08-17T08:28:06;19.60;79.40
52245;DHT22;55759;51.586;-1.758;2023-08-17T08:30:32;19.70;78.80
52245;DHT22;55759;51.586;-1.758;2023-08-17T08:32:57;19.70;78.10
52245;DHT22;55759;51.586;-1.758;2023-08-17T08:35:26;19.70;78.10
52245;DHT22;55759;51.586;-1.758;2023-08-17T08:37:53;19.80;78.80
52245;DHT22;55759;51.586;-1.758;2023-08-17T08:40:24;19.90;78.00
52245;DHT22;55759;51.586;-1.758;2023-08-17T08:42:51;20.10;77.30
52245;DHT22;55759;51.586;-1.758;2023-08-17T08:45:17;20.40;75.90
52245;DHT22;55759;51.586;-1.758;2023-08-17T08:47:43;20.50;75.60
52245;DHT22;55759;51.586;-1.758;2023-08-17T08:50:09;20.70;75.50
52245;DHT22;55759;51.586;-1.758;2023-08-17T08:52:42;20.90;75.90
52245;DHT22;55759;51.586;-1.758;2023-08-17T08:55:11;21.10;74.70
52245;DHT22;55759;51.586;-1.758;2023-08-17T08:57:40;21.20;73.50
52245;DHT22;55759;51.586;-1.758;2023-08-17T09:00:06;21.20;73.20
52245;DHT22;55759;51.586;-1.758;2023-08-17T09:02:33;21.30;73.70
52245;DHT22;55759;51.586;-1.758;2023-08-17T09:04:59;21.50;72.80
52245;DHT22;55759;51.586;-1.758;2023-08-17T09:07:24;21.60;73.30
52245;DHT22;55759;51.586;-1.758;2023-08-17T09:09:51;21.70;71.20
52245;DHT22;55759;51.586;-1.758;2023-08-17T09:12:17;21.90;70.80
52245;DHT22;55759;51.586;-1.758;2023-08-17T09:14:43;22.10;69.80
52245;DHT22;55759;51.586;-1.758;2023-08-17T09:17:08;22.30;69.70
52245;DHT22;55759;51.586;-1.758;2023-08-17T09:19:34;22.60;69.10
52245;DHT22;55759;51.586;-1.758;2023-08-17T09:22:00;22.60;67.30
52245;DHT22;55759;51.586;-1.758;2023-08-17T09:24:43;22.60;67.20
52245;DHT22;55759;51.586;-1.758;2023-08-17T09:27:11;22.60;67.40
52245;DHT22;55759;51.586;-1.758;2023-08-17T09:29:37;22.90;66.70
52245;DHT22;55759;51.586;-1.758;2023-08-17T09:32:04;23.20;66.20
52245;DHT22;55759;51.586;-1.758;2023-08-17T09:34:31;23.30;65.00
52245;DHT22;55759;51.586;-1.758;2023-08-17T09:37:01;23.30;65.00
52245;DHT22;55759;51.586;-1.758;2023-08-17T09:39:27;23.30;64.50
52245;DHT22;55759;51.586;-1.758;2023-08-17T09:41:53;23.20;64.10
52245;DHT22;55759;51.586;-1.758;2023-08-17T09:44:20;22.90;64.50
52245;DHT22;55759;51.586;-1.758;2023-08-17T09:46:46;23.00;65.50
52245;DHT22;55759;51.586;-1.758;2023-08-17T09:49:11;23.20;64.50
52245;DHT22;55759;51.586;-1.758;2023-08-17T09:51:37;23.40;65.20
52245;DHT22;55759;51.586;-1.758;2023-08-17T09:54:02;23.80;64.20
52245;DHT22;55759;51.586;-1.758;2023-08-17T09:56:28;24.10;62.50
52245;DHT22;55759;51.586;-1.758;2023-08-17T09:58:54;24.10;62.40
52245;DHT22;55759;51.586;-1.758;2023-08-17T10:01:20;24.30;62.20
52245;DHT22;55759;51.586;-1.758;2023-08-17T10:03:46;24.70;60.10
52245;DHT22;55759;51.586;-1.758;2023-08-17T10:06:16;24.80;59.60
52245;DHT22;55759;51.586;-1.758;2023-08-17T10:08:43;24.90;59.90
52245;DHT22;55759;51.586;-1.758;2023-08-17T10:11:09;25.10;59.00
52245;DHT22;55759;51.586;-1.758;2023-08-17T10:13:37;25.30;58.30
52245;DHT22;55759;51.586;-1.758;2023-08-17T10:21:08;25.60;55.80
52245;DHT22;55759;51.586;-1.758;2023-08-17T10:23:35;25.50;56.20
52245;DHT22;55759;51.586;-1.758;2023-08-17T10:26:02;25.30;55.40
52245;DHT22;55759;51.586;-1.758;2023-08-17T10:28:28;25.20;56.50
52245;DHT22;55759;51.586;-1.758;2023-08-17T10:30:55;25.30;57.30
52245;DHT22;55759;51.586;-1.758;2023-08-17T10:33:20;25.20;55.30
52245;DHT22;55759;51.586;-1.758;2023-08-17T10:35:46;25.10;56.20
52245;DHT22;55759;51.586;-1.758;2023-08-17T10:38:12;25.10;57.10
52245;DHT22;55759;51.586;-1.758;2023-08-17T10:40:41;25.10;55.50
52245;DHT22;55759;51.586;-1.758;2023-08-17T10:43:07;25.00;56.40
52245;DHT22;55759;51.586;-1.758;2023-08-17T10:45:34;25.10;56.30
52245;DHT22;55759;51.586;-1.758;2023-08-17T10:48:00;25.10;55.60
52245;DHT22;55759;51.586;-1.758;2023-08-17T10:50:58;25.30;56.20
52245;DHT22;55759;51.586;-1.758;2023-08-17T10:53:24;25.50;55.80
52245;DHT22;55759;51.586;-1.758;2023-08-17T10:55:50;25.50;55.20
52245;DHT22;55759;51.586;-1.758;2023-08-17T10:58:20;25.20;55.80
52245;DHT22;55759;51.586;-1.758;2023-08-17T11:00:46;24.90;56.60
52245;DHT22;55759;51.586;-1.758;2023-08-17T11:03:18;25.00;56.90
52245;DHT22;55759;51.586;-1.758;2023-08-17T11:05:48;25.00;56.00
52245;DHT22;55759;51.586;-1.758;2023-08-17T11:13:30;25.20;57.10
52245;DHT22;55759;51.586;-1.758;2023-08-17T11:15:57;25.20;56.80
52245;DHT22;55759;51.586;-1.758;2023-08-17T11:18:23;25.30;56.30
52245;DHT22;55759;51.586;-1.758;2023-08-17T11:20:48;25.90;54.70
52245;DHT22;55759;51.586;-1.758;2023-08-17T11:23:15;25.90;53.90
52245;DHT22;55759;51.586;-1.758;2023-08-17T11:25:41;25.90;54.20
52245;DHT22;55759;51.586;-1.758;2023-08-17T11:28:07;26.40;53.00
52245;DHT22;55759;51.586;-1.758;2023-08-17T11:30:33;28.00;50.20
52245;DHT22;55759;51.586;-1.758;2023-08-17T11:33:04;29.80;46.70
52245;DHT22;55759;51.586;-1.758;2023-08-17T11:35:30;31.60;44.20
52245;DHT22;55759;51.586;-1.758;2023-08-17T11:37:56;31.50;42.10
52245;DHT22;55759;51.586;-1.758;2023-08-17T11:40:21;32.10;41.80
52245;DHT22;55759;51.586;-1.758;2023-08-17T11:42:47;33.10;42.10
52245;DHT22;55759;51.586;-1.758;2023-08-17T11:45:13;34.30;37.40
52245;DHT22;55759;51.586;-1.758;2023-08-17T11:47:40;35.00;36.60
52245;DHT22;55759;51.586;-1.758;2023-08-17T11:50:06;34.50;35.90
52245;DHT22;55759;51.586;-1.758;2023-08-17T11:52:32;34.70;35.70
52245;DHT22;55759;51.586;-1.758;2023-08-17T11:55:04;35.90;34.80
52245;DHT22;55759;51.586;-1.758;2023-08-17T11:57:31;37.60;33.00
52245;DHT22;55759;51.586;-1.758;2023-08-17T11:59:59;39.00;29.90
52245;DHT22;55759;51.586;-1.758;2023-08-17T12:02:29;38.10;28.40
52245;DHT22;55759;51.586;-1.758;2023-08-17T12:04:55;36.50;31.20
52245;DHT22;55759;51.586;-1.758;2023-08-17T12:07:21;36.70;30.70
52245;DHT22;55759;51.586;-1.758;2023-08-17T12:09:48;35.90;33.40
52245;DHT22;55759;51.586;-1.758;2023-08-17T12:12:18;34.40;34.30
52245;DHT22;55759;51.586;-1.758;2023-08-17T12:14:44;33.10;36.60
52245;DHT22;55759;51.586;-1.758;2023-08-17T12:17:14;32.20;37.30
52245;DHT22;55759;51.586;-1.758;2023-08-17T12:19:41;33.00;38.00
52245;DHT22;55759;51.586;-1.758;2023-08-17T12:22:07;35.90;35.20
52245;DHT22;55759;51.586;-1.758;2023-08-17T12:24:32;36.90;31.70
52245;DHT22;55759;51.586;-1.758;2023-08-17T12:27:00;38.10;29.60
52245;DHT22;55759;51.586;-1.758;2023-08-17T12:29:26;38.80;29.00
52245;DHT22;55759;51.586;-1.758;2023-08-17T12:31:52;39.10;28.50
52245;DHT22;55759;51.586;-1.758;2023-08-17T12:34:17;39.90;27.90
52245;DHT22;55759;51.586;-1.758;2023-08-17T12:36:43;41.10;27.10
52245;DHT22;55759;51.586;-1.758;2023-08-17T12:39:09;41.40;27.50
52245;DHT22;55759;51.586;-1.758;2023-08-17T12:41:34;42.00;26.70
52245;DHT22;55759;51.586;-1.758;2023-08-17T12:44:00;41.50;24.70
52245;DHT22;55759;51.586;-1.758;2023-08-17T12:46:27;38.90;26.70
52245;DHT22;55759;51.586;-1.758;2023-08-17T12:48:53;36.20;32.80
52245;DHT22;55759;51.586;-1.758;2023-08-17T12:51:18;36.10;31.30
52245;DHT22;55759;51.586;-1.758;2023-08-17T12:53:44;36.40;31.20
52245;DHT22;55759;51.586;-1.758;2023-08-17T12:56:09;35.90;31.80
52245;DHT22;55759;51.586;-1.758;2023-08-17T12:58:35;36.50;31.00
52245;DHT22;55759;51.586;-1.758;2023-08-17T13:01:01;37.80;29.20
52245;DHT22;55759;51.586;-1.758;2023-08-17T13:03:27;37.40;28.60
52245;DHT22;55759;51.586;-1.758;2023-08-17T13:05:53;34.90;33.10
52245;DHT22;55759;51.586;-1.758;2023-08-17T13:08:19;34.80;32.80
52245;DHT22;55759;51.586;-1.758;2023-08-17T13:10:44;33.90;34.10
52245;DHT22;55759;51.586;-1.758;2023-08-17T13:13:10;32.50;36.40
52245;DHT22;55759;51.586;-1.758;2023-08-17T13:15:36;31.60;39.40
52245;DHT22;55759;51.586;-1.758;2023-08-17T13:18:01;30.90;41.00
52245;DHT22;55759;51.586;-1.758;2023-08-17T13:20:27;30.40;39.80
52245;DHT22;55759;51.586;-1.758;2023-08-17T13:22:53;29.60;41.60
52245;DHT22;55759;51.586;-1.758;2023-08-17T13:25:18;28.80;44.70
52245;DHT22;55759;51.586;-1.758;2023-08-17T13:27:44;28.20;45.00
52245;DHT22;55759;51.586;-1.758;2023-08-17T13:30:12;28.70;44.60
52245;DHT22;55759;51.586;-1.758;2023-08-17T13:32:38;31.20;39.10
52245;DHT22;55759;51.586;-1.758;2023-08-17T13:35:03;33.40;35.20
52245;DHT22;55759;51.586;-1.758;2023-08-17T13:37:29;33.80;32.70
52245;DHT22;55759;51.586;-1.758;2023-08-17T13:39:55;34.80;32.50
52245;DHT22;55759;51.586;-1.758;2023-08-17T13:42:20;36.40;30.40
52245;DHT22;55759;51.586;-1.758;2023-08-17T13:44:46;38.60;27.20
52245;DHT22;55759;51.586;-1.758;2023-08-17T13:47:12;39.80;25.50
52245;DHT22;55759;51.586;-1.758;2023-08-17T13:49:37;39.70;25.90
52245;DHT22;55759;51.586;-1.758;2023-08-17T13:52:03;39.90;26.60
52245;DHT22;55759;51.586;-1.758;2023-08-17T13:54:29;40.40;25.20
52245;DHT22;55759;51.586;-1.758;2023-08-17T13:56:54;41.50;24.60
52245;DHT22;55759;51.586;-1.758;2023-08-17T13:59:20;39.60;27.30
52245;DHT22;55759;51.586;-1.758;2023-08-17T14:01:46;38.50;30.70
52245;DHT22;55759;51.586;-1.758;2023-08-17T14:04:11;38.40;27.60
52245;DHT22;55759;51.586;-1.758;2023-08-17T14:06:38;37.00;28.30
52245;DHT22;55759;51.586;-1.758;2023-08-17T14:09:03;35.10;31.70
52245;DHT22;55759;51.586;-1.758;2023-08-17T14:11:29;34.10;32.30
52245;DHT22;55759;51.586;-1.758;2023-08-17T14:13:55;33.20;33.50
52245;DHT22;55759;51.586;-1.758;2023-08-17T14:16:20;33.00;35.80
52245;DHT22;55759;51.586;-1.758;2023-08-17T14:18:46;32.90;35.50
52245;DHT22;55759;51.586;-1.758;2023-08-17T14:21:11;32.70;34.90
52245;DHT22;55759;51.586;-1.758;2023-08-17T14:23:38;32.40;37.10
52245;DHT22;55759;51.586;-1.758;2023-08-17T14:26:03;31.70;35.40
52245;DHT22;55759;51.586;-1.758;2023-08-17T14:28:29;30.60;37.40
52245;DHT22;55759;51.586;-1.758;2023-08-17T14:30:54;29.50;40.10
52245;DHT22;55759;51.586;-1.758;2023-08-17T14:33:20;29.20;41.10
52245;DHT22;55759;51.586;-1.758;2023-08-17T14:35:46;29.10;39.60
52245;DHT22;55759;51.586;-1.758;2023-08-17T14:38:12;29.20;39.90
52245;DHT22;55759;51.586;-1.758;2023-08-17T14:40:41;29.70;39.10
52245;DHT22;55759;51.586;-1.758;2023-08-17T14:43:07;30.20;41.00
52245;DHT22;55759;51.586;-1.758;2023-08-17T14:45:34;30.30;37.20
52245;DHT22;55759;51.586;-1.758;2023-08-17T14:48:00;30.50;37.00
52245;DHT22;55759;51.586;-1.758;2023-08-17T14:50:26;31.00;39.20
52245;DHT22;55759;51.586;-1.758;2023-08-17T14:52:51;31.40;37.60
52245;DHT22;55759;51.586;-1.758;2023-08-17T14:55:17;31.50;39.20
52245;DHT22;55759;51.586;-1.758;2023-08-17T14:57:42;31.50;35.70
52245;DHT22;55759;51.586;-1.758;2023-08-17T15:00:08;31.90;36.10
52245;DHT22;55759;51.586;-1.758;2023-08-17T15:02:34;32.10;34.90
52245;DHT22;55759;51.586;-1.758;2023-08-17T15:04:59;32.10;37.70
52245;DHT22;55759;51.586;-1.758;2023-08-17T15:07:25;32.00;41.30
52245;DHT22;55759;51.586;-1.758;2023-08-17T15:09:50;31.90;35.70
52245;DHT22;55759;51.586;-1.758;2023-08-17T15:12:16;31.70;37.40
52245;DHT22;55759;51.586;-1.758;2023-08-17T15:14:45;31.40;40.00
52245;DHT22;55759;51.586;-1.758;2023-08-17T15:17:10;31.10;39.50
52245;DHT22;55759;51.586;-1.758;2023-08-17T15:19:37;30.60;39.20
52245;DHT22;55759;51.586;-1.758;2023-08-17T15:22:03;30.00;40.80
52245;DHT22;55759;51.586;-1.758;2023-08-17T15:24:29;29.30;45.80